LOWL Airport Information

Runway Information
Runway 09 Length 9843 ft width 197 ft
Elevation 978 ft Threshold 821 ft Heading 87
Runway 27 Length 9843 ft Width 197 ft
Elevation 963 ft Threshold 493 ft Heading 267
Runway 09L Length 2165 ft width 148 ft
Elevation 971 ft Threshold 0 ft Heading 87
Runway 27R Length 2165 ft Width 148 ft
Elevation 968 ft Threshold 0 ft Heading 267
Airport Frequencies
Type APP Name RADAR Frequency 129.625 MHZ
Type ATIS Name ATIS Frequency 128.125 MHZ
Type TWR Name TWR Frequency 118.8 MHZ
Airport Navaids
Airport Weather Information & NOTAM
ADDS - METARS form results

(0652 UTC 20 January 2018)
 
METAR text: LOWL 200620Z 23008KT 9999 FEW014 SCT022 BKN044 01/M01 Q1013 R08/5///95 NOSIG
Conditions at: LOWL (LINZ (CIV/MIL) , AT) observed 0620 UTC 20 January 2018
Temperature: 1.0°C (34°F)
Dewpoint: -1.0°C (30°F) [RH = 86%]
Pressure (altimeter): 29.91 inches Hg (1013.0 mb)
Winds: from the SW (230 degrees) at 9 MPH (8 knots; 4.2 m/s)
Visibility: 6 or more miles (10+ km)
Ceiling: 4400 feet AGL
Clouds: few clouds at 1400 feet AGL
scattered clouds at 2200 feet AGL
broken clouds at 4400 feet AGL
Weather: no significant weather observed at this time